createdAt,value
2023-03-30T00:02:18.788Z,3.05
2023-03-30T00:04:43.572Z,3.15
2023-03-30T00:07:08.321Z,2.95
2023-03-30T00:09:33.170Z,3.15
2023-03-30T00:11:56.612Z,3.05
2023-03-30T00:14:22.743Z,2.40
2023-03-30T00:16:46.127Z,3.00
2023-03-30T00:19:09.383Z,2.65
2023-03-30T00:21:34.893Z,3.03
2023-03-30T00:23:58.189Z,3.40
2023-03-30T00:26:22.299Z,2.72
2023-03-30T00:28:47.149Z,2.97
2023-03-30T00:31:11.395Z,2.90
2023-03-30T00:33:45.581Z,3.10
2023-03-30T00:36:10.988Z,3.60
2023-03-30T00:38:35.641Z,3.60
2023-03-30T00:41:02.003Z,3.47
2023-03-30T00:43:27.324Z,3.75
2023-03-30T00:45:51.901Z,2.90
2023-03-30T00:48:18.926Z,3.30
2023-03-30T00:50:48.272Z,3.63
2023-03-30T00:53:17.336Z,3.22
2023-03-30T00:55:42.279Z,3.13
2023-03-30T00:58:07.643Z,3.00
2023-03-30T01:00:31.015Z,3.20
2023-03-30T01:02:59.346Z,2.72
2023-03-30T01:05:24.205Z,3.30
2023-03-30T01:07:50.016Z,3.30
2023-03-30T01:10:14.000Z,2.97
2023-03-30T01:12:39.323Z,2.95
2023-03-30T01:15:02.666Z,3.25
2023-03-30T01:17:33.359Z,2.83
2023-03-30T01:20:46.952Z,2.80
2023-03-30T01:24:03.976Z,3.08
2023-03-30T01:26:47.000Z,2.92
2023-03-30T01:29:24.703Z,2.47
2023-03-30T01:32:35.760Z,3.50
2023-03-30T01:35:49.237Z,2.67
2023-03-30T01:39:02.424Z,2.88
2023-03-30T01:41:35.134Z,2.40
2023-03-30T01:44:05.318Z,2.80
2023-03-30T01:46:33.861Z,3.13
2023-03-30T01:49:04.555Z,2.90
2023-03-30T01:51:33.239Z,2.53
2023-03-30T01:54:02.074Z,2.60
2023-03-30T01:56:31.331Z,2.40
2023-03-30T01:59:00.237Z,2.60
2023-03-30T02:01:26.052Z,2.60
2023-03-30T02:03:55.115Z,2.70
2023-03-30T02:06:24.525Z,2.38
2023-03-30T02:08:51.757Z,2.45
2023-03-30T02:11:15.410Z,3.25
2023-03-30T02:13:42.126Z,2.50
2023-03-30T02:16:12.753Z,2.55
2023-03-30T02:18:41.196Z,2.25
2023-03-30T02:21:05.184Z,2.70
2023-03-30T02:23:35.219Z,2.45
2023-03-30T02:25:59.442Z,2.40
2023-03-30T02:28:22.746Z,2.50
2023-03-30T02:30:48.637Z,2.22
2023-03-30T02:33:22.912Z,3.03
2023-03-30T02:36:04.925Z,2.47
2023-03-30T02:38:54.277Z,2.92
2023-03-30T02:41:33.537Z,2.00
2023-03-30T02:44:06.579Z,2.45
2023-03-30T02:47:01.657Z,2.50
2023-03-30T02:49:43.494Z,2.40
2023-03-30T02:52:14.263Z,2.60
2023-03-30T02:54:51.767Z,2.40
2023-03-30T02:57:28.764Z,2.38
2023-03-30T03:00:13.062Z,2.47
2023-03-30T03:02:42.351Z,2.35
2023-03-30T03:05:21.501Z,2.33
2023-03-30T03:07:52.100Z,2.28
2023-03-30T03:10:15.974Z,2.28
2023-03-30T03:12:39.317Z,2.83
2023-03-30T03:15:03.600Z,2.40
2023-03-30T03:17:29.624Z,2.55
2023-03-30T03:19:54.345Z,2.60
2023-03-30T03:22:18.318Z,2.35
2023-03-30T03:24:42.380Z,2.17
2023-03-30T03:27:11.992Z,2.00
2023-03-30T03:29:54.282Z,2.08
2023-03-30T03:32:17.982Z,2.40
2023-03-30T03:34:44.770Z,2.17
2023-03-30T03:37:10.725Z,2.30
2023-03-30T03:39:35.715Z,2.50
2023-03-30T03:42:04.716Z,2.38
2023-03-30T03:44:28.198Z,2.28
2023-03-30T03:46:51.750Z,2.22
2023-03-30T03:49:15.385Z,2.05
2023-03-30T03:51:38.976Z,2.38
2023-03-30T03:54:03.843Z,2.50
2023-03-30T03:56:27.669Z,2.33
2023-03-30T03:58:52.056Z,2.33
2023-03-30T04:01:15.376Z,2.22
2023-03-30T04:03:38.640Z,2.58
2023-03-30T04:06:03.513Z,2.58
2023-03-30T04:08:28.591Z,2.47
2023-03-30T04:10:57.484Z,2.83
2023-03-30T04:13:33.380Z,3.13
2023-03-30T04:16:15.595Z,3.85
2023-03-30T04:19:09.140Z,6.75
2023-03-30T04:21:47.044Z,4.88
2023-03-30T04:24:20.165Z,5.90
2023-03-30T04:27:09.679Z,3.00
2023-03-30T04:29:57.606Z,4.03
2023-03-30T04:32:41.356Z,3.35
2023-03-30T04:35:23.314Z,3.55
2023-03-30T04:38:06.199Z,2.40
2023-03-30T04:40:55.816Z,3.17
2023-03-30T04:43:45.644Z,3.40
2023-03-30T04:46:39.764Z,2.50
2023-03-30T04:49:03.589Z,2.50
2023-03-30T04:51:54.634Z,2.63
2023-03-30T04:54:50.571Z,2.17
2023-03-30T04:57:32.535Z,2.33
2023-03-30T05:00:12.291Z,2.60
2023-03-30T05:02:47.679Z,2.60
2023-03-30T05:05:29.833Z,2.55
2023-03-30T05:08:11.762Z,2.60
2023-03-30T05:10:58.584Z,2.47
2023-03-30T05:13:40.520Z,2.40
2023-03-30T05:16:24.079Z,2.50
2023-03-30T05:19:20.042Z,2.38
2023-03-30T05:22:03.626Z,2.47
2023-03-30T05:24:27.093Z,2.53
2023-03-30T05:27:22.523Z,2.65
2023-03-30T05:30:20.976Z,2.55
2023-03-30T05:33:05.190Z,2.83
2023-03-30T05:35:44.946Z,2.45
2023-03-30T05:38:21.712Z,2.20
2023-03-30T05:41:06.759Z,2.50
2023-03-30T05:43:45.772Z,2.40
2023-03-30T05:46:23.274Z,2.33
2023-03-30T05:49:11.911Z,2.63
2023-03-30T05:51:48.118Z,2.30
2023-03-30T05:54:37.377Z,2.30
2023-03-30T05:57:10.785Z,2.10
2023-03-30T05:59:54.605Z,1.98
2023-03-30T06:02:24.558Z,2.08
2023-03-30T06:04:54.335Z,2.10
2023-03-30T06:07:18.416Z,1.85
2023-03-30T06:09:42.229Z,1.77
2023-03-30T06:12:15.084Z,2.00
2023-03-30T06:14:38.580Z,2.30
2023-03-30T06:17:37.815Z,1.83
2023-03-30T06:20:08.366Z,1.63
2023-03-30T06:22:32.578Z,1.90
2023-03-30T06:25:13.555Z,2.00
2023-03-30T06:27:38.296Z,1.70
2023-03-30T06:30:01.712Z,1.70
2023-03-30T06:32:25.318Z,2.30
2023-03-30T06:35:13.360Z,1.92
2023-03-30T06:37:37.177Z,1.95
2023-03-30T06:40:00.887Z,2.10
2023-03-30T06:42:24.231Z,2.10
2023-03-30T06:44:59.329Z,2.17
2023-03-30T06:47:23.224Z,2.30
2023-03-30T06:49:48.415Z,2.08
2023-03-30T06:52:51.623Z,2.15
2023-03-30T06:55:16.930Z,2.22
2023-03-30T06:57:40.253Z,2.13
2023-03-30T07:00:06.521Z,2.75
2023-03-30T07:02:35.691Z,2.17
2023-03-30T07:05:19.278Z,2.20
2023-03-30T07:07:51.722Z,2.05
2023-03-30T07:10:15.230Z,2.15
2023-03-30T07:12:38.798Z,2.20
2023-03-30T07:15:03.164Z,2.15
2023-03-30T07:17:27.607Z,2.25
2023-03-30T07:19:51.043Z,2.70
2023-03-30T07:22:14.465Z,2.20
2023-03-30T07:24:39.391Z,2.42
2023-03-30T07:27:02.880Z,2.20
2023-03-30T07:29:28.827Z,1.85
2023-03-30T07:31:53.040Z,2.28
2023-03-30T07:34:18.290Z,2.22
2023-03-30T07:36:47.603Z,2.47
2023-03-30T07:39:11.271Z,2.60
2023-03-30T07:41:38.011Z,2.30
2023-03-30T07:44:01.621Z,2.15
2023-03-30T07:46:25.258Z,2.30
2023-03-30T07:48:51.230Z,1.83
2023-03-30T07:51:16.122Z,2.17
2023-03-30T07:53:49.716Z,2.67
2023-03-30T07:56:20.192Z,2.20
2023-03-30T07:58:46.628Z,1.90
2023-03-30T08:01:11.081Z,2.35
2023-03-30T08:04:05.012Z,2.05
2023-03-30T08:06:32.621Z,2.00
2023-03-30T08:08:57.265Z,2.35
2023-03-30T08:11:20.909Z,2.20
2023-03-30T08:13:45.979Z,2.03
2023-03-30T08:16:09.978Z,2.15
2023-03-30T08:18:33.366Z,2.38
2023-03-30T08:20:56.674Z,2.28
2023-03-30T08:23:20.444Z,2.53
2023-03-30T08:25:45.341Z,2.38
2023-03-30T08:28:10.298Z,1.98
2023-03-30T08:30:35.109Z,2.70
2023-03-30T08:32:58.558Z,2.22
2023-03-30T08:35:22.345Z,2.40
2023-03-30T08:37:45.789Z,2.30
2023-03-30T08:40:12.839Z,2.45
2023-03-30T08:43:30.524Z,2.53
2023-03-30T08:45:55.247Z,2.65
2023-03-30T08:48:22.060Z,3.00
2023-03-30T08:50:55.215Z,2.53
2023-03-30T08:53:19.087Z,3.00
2023-03-30T08:55:47.676Z,2.15
2023-03-30T08:58:22.238Z,2.40
2023-03-30T09:00:49.617Z,2.38
2023-03-30T09:03:21.717Z,2.40
2023-03-30T09:05:52.659Z,2.55
2023-03-30T09:08:20.120Z,3.13
2023-03-30T09:10:48.655Z,2.35
2023-03-30T09:13:16.881Z,3.03
2023-03-30T09:15:46.743Z,2.60
2023-03-30T09:18:19.485Z,2.53
2023-03-30T09:20:46.054Z,2.55
2023-03-30T09:23:15.584Z,2.88
2023-03-30T09:25:47.343Z,2.80
2023-03-30T09:28:18.811Z,2.95
2023-03-30T09:30:44.940Z,2.35
2023-03-30T09:33:27.166Z,2.67
2023-03-30T09:36:05.657Z,2.53
2023-03-30T09:38:31.019Z,2.55
2023-03-30T09:41:08.430Z,2.78
2023-03-30T09:43:37.470Z,2.90
2023-03-30T09:46:03.758Z,2.92
2023-03-30T09:48:28.678Z,2.38
2023-03-30T09:50:52.033Z,2.85
2023-03-30T09:53:26.006Z,2.67
2023-03-30T09:56:00.736Z,2.67
2023-03-30T09:58:29.967Z,2.33
2023-03-30T10:01:06.780Z,3.13
2023-03-30T10:03:31.642Z,2.88
2023-03-30T10:06:06.224Z,3.28
2023-03-30T10:08:30.164Z,2.47
2023-03-30T10:10:56.272Z,2.70
2023-03-30T10:13:20.500Z,3.45
2023-03-30T10:15:46.430Z,2.45
2023-03-30T10:18:25.184Z,3.05
2023-03-30T10:20:54.038Z,3.47
2023-03-30T10:23:19.860Z,3.00
2023-03-30T10:25:46.577Z,2.78
2023-03-30T10:28:21.881Z,2.90
2023-03-30T10:30:52.938Z,2.90
2023-03-30T10:33:16.278Z,2.40
2023-03-30T10:35:40.088Z,3.03
2023-03-30T10:38:06.617Z,3.17
2023-03-30T10:40:36.571Z,3.05
2023-03-30T10:43:00.760Z,3.08
2023-03-30T10:45:36.068Z,2.92
2023-03-30T10:48:19.014Z,2.88
2023-03-30T10:50:55.471Z,3.08
2023-03-30T10:53:33.977Z,2.70
2023-03-30T10:56:09.898Z,2.83
2023-03-30T10:58:52.925Z,2.92
2023-03-30T11:01:23.187Z,2.70
2023-03-30T11:03:53.177Z,3.38
2023-03-30T11:06:24.018Z,3.22
2023-03-30T11:08:52.640Z,3.03
2023-03-30T11:11:22.260Z,2.58
2023-03-30T11:13:49.825Z,3.22
2023-03-30T11:16:18.007Z,3.35
2023-03-30T11:18:48.470Z,3.17
2023-03-30T11:21:18.810Z,3.30
2023-03-30T11:23:53.104Z,2.85
2023-03-30T11:26:21.649Z,2.60
2023-03-30T11:28:55.009Z,2.95
2023-03-30T11:31:38.241Z,3.05
2023-03-30T11:34:14.030Z,2.88
2023-03-30T11:36:45.148Z,3.00
2023-03-30T11:39:28.872Z,2.80
2023-03-30T11:42:02.046Z,3.38
2023-03-30T11:44:25.394Z,2.45
2023-03-30T11:47:00.713Z,2.80
2023-03-30T11:49:42.550Z,3.08
2023-03-30T11:52:21.547Z,2.50
2023-03-30T11:55:24.844Z,2.72
2023-03-30T11:57:59.264Z,3.30
2023-03-30T12:00:33.486Z,2.78
2023-03-30T12:03:14.679Z,2.90
2023-03-30T12:05:43.638Z,2.88
2023-03-30T12:08:27.661Z,2.40
2023-03-30T12:10:59.176Z,2.47
2023-03-30T12:13:22.710Z,2.97
2023-03-30T12:15:55.767Z,2.83
2023-03-30T12:18:31.177Z,2.80
2023-03-30T12:21:04.928Z,2.70
2023-03-30T12:23:37.774Z,3.00
2023-03-30T12:26:20.073Z,2.30
2023-03-30T12:29:15.205Z,2.13
2023-03-30T12:32:07.113Z,2.63
2023-03-30T12:34:35.493Z,2.58
2023-03-30T12:37:04.749Z,2.67
2023-03-30T12:39:32.109Z,2.70
2023-03-30T12:42:05.527Z,2.85
2023-03-30T12:44:42.854Z,2.47
2023-03-30T12:47:38.298Z,2.67
2023-03-30T12:50:30.543Z,3.17
2023-03-30T12:53:14.007Z,3.13
2023-03-30T12:55:45.236Z,2.88
2023-03-30T12:58:34.712Z,3.10
2023-03-30T13:01:13.065Z,2.90
2023-03-30T13:03:45.837Z,2.30
2023-03-30T13:06:22.444Z,2.28
2023-03-30T13:08:45.845Z,2.63
2023-03-30T13:11:15.538Z,2.70
2023-03-30T13:13:55.874Z,2.38
2023-03-30T13:17:11.877Z,2.40
2023-03-30T13:19:49.554Z,2.90
2023-03-30T13:22:40.274Z,2.88
2023-03-30T13:25:29.009Z,2.38
2023-03-30T13:27:53.375Z,2.78
2023-03-30T13:30:18.865Z,2.47
2023-03-30T13:32:58.934Z,2.67
2023-03-30T13:35:40.702Z,2.40
2023-03-30T13:38:33.258Z,3.28
2023-03-30T13:41:07.143Z,2.65
2023-03-30T13:43:47.267Z,3.15
2023-03-30T13:46:19.397Z,2.45
2023-03-30T13:48:59.537Z,2.78
2023-03-30T13:51:28.304Z,2.72
2023-03-30T13:53:56.224Z,3.05
2023-03-30T13:56:20.838Z,3.13
2023-03-30T13:58:51.584Z,3.50
2023-03-30T14:01:20.979Z,2.80
2023-03-30T14:03:45.351Z,3.03
2023-03-30T14:06:17.665Z,3.30
2023-03-30T14:08:44.952Z,3.28
2023-03-30T14:11:17.124Z,3.08
2023-03-30T14:13:40.725Z,3.00
2023-03-30T14:16:05.513Z,3.38
2023-03-30T14:18:30.976Z,3.25
2023-03-30T14:20:58.228Z,3.40
2023-03-30T14:23:34.433Z,2.97
2023-03-30T14:26:01.320Z,2.70
2023-03-30T14:28:24.963Z,3.63
2023-03-30T14:30:53.737Z,3.00
2023-03-30T14:33:18.159Z,2.70
2023-03-30T14:35:46.418Z,2.40
2023-03-30T14:38:17.876Z,3.10
2023-03-30T14:40:41.602Z,2.65
2023-03-30T14:43:05.027Z,2.80
2023-03-30T14:45:28.317Z,2.53
2023-03-30T14:47:56.200Z,2.60
2023-03-30T14:50:19.546Z,2.75
2023-03-30T14:52:47.641Z,2.65
2023-03-30T14:55:18.202Z,3.00
2023-03-30T14:57:44.495Z,2.47
2023-03-30T15:00:21.035Z,2.90
2023-03-30T15:02:45.925Z,2.63
2023-03-30T15:05:10.611Z,3.17
2023-03-30T15:07:34.899Z,2.65
2023-03-30T15:10:01.506Z,3.28
2023-03-30T15:12:28.663Z,3.08
2023-03-30T15:14:52.592Z,3.00
2023-03-30T15:17:19.827Z,3.78
2023-03-30T15:19:43.550Z,2.97
2023-03-30T15:22:14.632Z,2.50
2023-03-30T15:24:39.240Z,1.92
2023-03-30T15:27:06.745Z,2.10
2023-03-30T15:29:30.947Z,1.65
2023-03-30T15:32:06.295Z,2.15
2023-03-30T15:34:29.731Z,1.48
2023-03-30T15:36:56.924Z,1.48
2023-03-30T15:39:23.016Z,1.85
2023-03-30T15:41:49.461Z,1.90
2023-03-30T15:44:19.218Z,1.42
2023-03-30T15:46:42.604Z,1.13
2023-03-30T15:49:06.876Z,1.20
2023-03-30T15:51:34.147Z,1.83
2023-03-30T15:54:02.958Z,1.70
2023-03-30T15:56:31.935Z,1.73
2023-03-30T15:58:55.565Z,1.75
2023-03-30T16:01:20.638Z,1.75
2023-03-30T16:03:55.010Z,1.58
2023-03-30T16:06:21.138Z,1.63
2023-03-30T16:08:45.251Z,1.88
2023-03-30T16:11:08.751Z,2.22
2023-03-30T16:13:32.149Z,1.83
2023-03-30T16:15:56.039Z,2.78
2023-03-30T16:18:21.205Z,2.20
2023-03-30T16:20:44.641Z,2.45
2023-03-30T16:23:08.407Z,2.88
2023-03-30T16:25:44.243Z,2.88
2023-03-30T16:28:08.250Z,2.40
2023-03-30T16:30:35.121Z,2.25
2023-03-30T16:32:58.539Z,2.78
2023-03-30T16:35:23.455Z,2.63
2023-03-30T16:37:46.946Z,2.58
2023-03-30T16:40:28.397Z,2.65
2023-03-30T16:42:51.667Z,2.78
2023-03-30T16:45:15.033Z,2.92
2023-03-30T16:47:38.355Z,3.20
2023-03-30T16:50:01.715Z,2.08
2023-03-30T16:52:26.476Z,2.60
2023-03-30T16:54:50.451Z,2.60
2023-03-30T16:57:13.818Z,2.65
2023-03-30T16:59:37.169Z,2.10
2023-03-30T17:02:01.030Z,1.80
2023-03-30T17:04:24.283Z,1.92
2023-03-30T17:06:47.691Z,2.20
2023-03-30T17:09:16.976Z,1.40
2023-03-30T17:11:40.253Z,1.65
2023-03-30T17:14:03.506Z,1.80
2023-03-30T17:16:28.942Z,1.30
2023-03-30T17:18:52.744Z,1.42
2023-03-30T17:21:17.160Z,1.70
2023-03-30T17:23:40.514Z,1.55
2023-03-30T17:26:07.687Z,1.80
2023-03-30T17:28:33.748Z,1.60
2023-03-30T17:31:00.025Z,1.75
2023-03-30T17:33:23.729Z,2.15
2023-03-30T17:35:51.688Z,1.63
2023-03-30T17:38:17.060Z,1.75
2023-03-30T17:40:40.432Z,1.85
2023-03-30T17:43:05.506Z,1.90
2023-03-30T17:45:30.480Z,2.08
2023-03-30T17:47:54.002Z,1.95
2023-03-30T17:50:25.868Z,1.92
2023-03-30T17:52:50.424Z,1.95
2023-03-30T17:55:13.760Z,1.77
2023-03-30T17:57:36.994Z,1.65
2023-03-30T18:00:02.873Z,2.17
2023-03-30T18:02:27.950Z,1.73
2023-03-30T18:04:51.318Z,1.98
2023-03-30T18:07:17.075Z,1.98
2023-03-30T18:09:40.370Z,1.80
2023-03-30T18:12:03.664Z,2.10
2023-03-30T18:14:26.963Z,1.77
2023-03-30T18:16:51.731Z,1.70
2023-03-30T18:19:15.183Z,1.90
2023-03-30T18:21:38.568Z,2.35
2023-03-30T18:24:03.612Z,2.25
2023-03-30T18:26:27.406Z,2.08
2023-03-30T18:28:51.103Z,2.15
2023-03-30T18:31:14.442Z,2.25
2023-03-30T18:33:39.307Z,2.45
2023-03-30T18:36:05.957Z,2.15
2023-03-30T18:38:29.608Z,2.05
2023-03-30T18:40:57.752Z,2.22
2023-03-30T18:43:21.507Z,2.13
2023-03-30T18:45:48.512Z,2.67
2023-03-30T18:48:15.685Z,2.28
2023-03-30T18:50:43.269Z,2.55
2023-03-30T18:53:09.398Z,2.80
2023-03-30T18:55:35.537Z,2.80
2023-03-30T18:57:58.932Z,3.08
2023-03-30T19:00:26.333Z,2.83
2023-03-30T19:02:51.002Z,3.38
2023-03-30T19:05:14.489Z,3.08
2023-03-30T19:07:39.141Z,3.35
2023-03-30T19:10:02.423Z,3.35
2023-03-30T19:12:26.115Z,4.00
2023-03-30T19:14:49.398Z,3.15
2023-03-30T19:17:15.688Z,3.17
2023-03-30T19:19:39.013Z,3.15
2023-03-30T19:22:02.517Z,3.35
2023-03-30T19:24:27.104Z,2.70
2023-03-30T19:26:50.481Z,2.15
2023-03-30T19:29:14.304Z,2.85
2023-03-30T19:31:37.586Z,2.65
2023-03-30T19:34:00.874Z,1.98
2023-03-30T19:36:25.268Z,2.13
2023-03-30T19:38:49.461Z,2.05
2023-03-30T19:41:14.154Z,2.22
2023-03-30T19:43:37.449Z,2.10
2023-03-30T19:46:00.709Z,2.05
2023-03-30T19:48:24.264Z,2.60
2023-03-30T19:50:49.198Z,2.30
2023-03-30T19:53:12.586Z,1.98
2023-03-30T19:55:36.665Z,2.20
2023-03-30T19:58:01.932Z,2.28
2023-03-30T20:00:25.645Z,2.22
2023-03-30T20:02:51.128Z,2.40
2023-03-30T20:05:15.448Z,1.85
2023-03-30T20:07:39.577Z,2.25
2023-03-30T20:10:03.020Z,2.00
2023-03-30T20:12:26.290Z,2.03
2023-03-30T20:14:51.005Z,2.00
2023-03-30T20:17:14.269Z,2.40
2023-03-30T20:19:40.723Z,2.15
2023-03-30T20:22:04.270Z,2.28
2023-03-30T20:24:27.674Z,2.10
2023-03-30T20:26:50.929Z,1.75
2023-03-30T20:29:14.179Z,2.35
2023-03-30T20:31:38.823Z,1.92
2023-03-30T20:34:02.471Z,2.17
2023-03-30T20:36:27.625Z,1.95
2023-03-30T20:38:51.159Z,1.92
2023-03-30T20:41:15.524Z,1.80
2023-03-30T20:43:55.656Z,2.00
2023-03-30T20:46:21.825Z,1.90
2023-03-30T20:48:54.024Z,1.90
2023-03-30T20:51:17.692Z,2.00
2023-03-30T20:53:42.892Z,2.38
2023-03-30T20:56:09.232Z,1.73
2023-03-30T20:58:33.234Z,1.98
2023-03-30T21:00:58.905Z,1.98
2023-03-30T21:03:25.986Z,2.10
2023-03-30T21:06:00.798Z,1.50
2023-03-30T21:08:24.077Z,2.08
2023-03-30T21:10:47.301Z,1.80
2023-03-30T21:13:10.966Z,2.30
2023-03-30T21:15:34.215Z,2.42
2023-03-30T21:17:57.578Z,2.17
2023-03-30T21:20:21.228Z,1.95
2023-03-30T21:22:45.864Z,1.75
2023-03-30T21:25:11.428Z,1.20
2023-03-30T21:27:34.663Z,1.90
2023-03-30T21:29:58.171Z,1.50
2023-03-30T21:32:21.454Z,1.70
2023-03-30T21:34:44.716Z,1.52
2023-03-30T21:37:08.062Z,1.60
2023-03-30T21:39:32.729Z,1.65
2023-03-30T21:41:56.037Z,1.30
2023-03-30T21:44:19.618Z,1.40
2023-03-30T21:46:42.920Z,1.50
2023-03-30T21:49:06.203Z,1.27
2023-03-30T21:51:31.449Z,1.73
2023-03-30T21:53:56.220Z,1.58
2023-03-30T21:56:24.435Z,1.60
2023-03-30T21:58:47.652Z,1.48
2023-03-30T22:01:13.043Z,1.52
2023-03-30T22:03:36.810Z,1.50
2023-03-30T22:06:01.775Z,1.50
2023-03-30T22:08:25.164Z,1.48
2023-03-30T22:10:56.711Z,1.80
2023-03-30T22:13:21.508Z,1.90
2023-03-30T22:15:44.828Z,2.28
2023-03-30T22:18:08.182Z,1.70
2023-03-30T22:20:32.379Z,1.70
2023-03-30T22:22:56.592Z,1.85
2023-03-30T22:25:19.921Z,2.15
2023-03-30T22:27:44.714Z,2.33
2023-03-30T22:30:11.263Z,2.20
2023-03-30T22:32:35.093Z,2.53
2023-03-30T22:34:58.387Z,2.22
2023-03-30T22:37:21.714Z,2.00
2023-03-30T22:39:45.070Z,2.58
2023-03-30T22:42:08.448Z,2.00
2023-03-30T22:44:31.784Z,2.40
2023-03-30T22:46:56.428Z,2.15
2023-03-30T22:49:19.696Z,2.63
2023-03-30T22:51:52.047Z,2.40
2023-03-30T22:54:16.440Z,2.50
2023-03-30T22:56:39.736Z,2.65
2023-03-30T22:59:03.422Z,2.58
2023-03-30T23:01:29.093Z,2.40
2023-03-30T23:03:54.432Z,2.20
2023-03-30T23:06:19.119Z,2.40
2023-03-30T23:08:42.504Z,2.58
2023-03-30T23:11:06.443Z,2.33
2023-03-30T23:13:30.794Z,2.40
2023-03-30T23:15:54.072Z,2.17
2023-03-30T23:18:17.696Z,2.35
2023-03-30T23:20:46.834Z,2.28
2023-03-30T23:23:10.161Z,2.25
2023-03-30T23:25:33.962Z,2.30
2023-03-30T23:27:58.048Z,2.70
2023-03-30T23:30:21.520Z,2.30
2023-03-30T23:32:44.871Z,2.80
2023-03-30T23:35:08.979Z,2.25
2023-03-30T23:37:34.125Z,2.08
2023-03-30T23:39:58.855Z,2.30
2023-03-30T23:42:22.677Z,2.33
2023-03-30T23:44:46.072Z,2.08
2023-03-30T23:47:09.346Z,2.28
2023-03-30T23:49:32.574Z,2.28
2023-03-30T23:51:56.077Z,1.90
2023-03-30T23:54:21.308Z,2.10
2023-03-30T23:56:46.952Z,2.35
2023-03-30T23:59:11.739Z,1.85
